Time;durP1;ratioP1;P1;durP2;ratioP2;P2;SDS_P1;SDS_P2;PMS_P1;PMS_P2;Temp;Humidity;BMP_temperature;BMP_pressure;BME280_temperature;BME280_humidity;BME280_pressure;Samples;Min_cycle;Max_cycle;Signal;HPM_P1;HPM_P2
2024/02/10 00:00:44;;;;;;;5.20;2.10;;;10.50;99.90;;;;;;5035611;28;20034;-62
2024/02/10 00:03:11;;;;;;;5.22;2.22;;;10.50;99.90;;;;;;5035488;28;20045;-60
2024/02/10 00:05:39;;;;;;;8.07;2.10;;;10.50;99.90;;;;;;5035276;28;20163;-60
2024/02/10 00:08:06;;;;;;;6.43;1.80;;;10.50;99.90;;;;;;5035714;28;20033;-60
2024/02/10 00:10:33;;;;;;;7.22;1.85;;;10.50;99.90;;;;;;5035130;28;20045;-61
2024/02/10 00:13:00;;;;;;;5.80;1.88;;;10.50;99.90;;;;;;5035280;28;20455;-62
2024/02/10 00:15:27;;;;;;;7.70;2.20;;;10.50;99.90;;;;;;5034963;28;20140;-63
2024/02/10 00:17:54;;;;;;;8.10;2.10;;;10.50;99.90;;;;;;5035227;28;20048;-63
2024/02/10 00:20:23;;;;;;;5.60;1.58;;;10.50;99.90;;;;;;5035505;28;20390;-63
2024/02/10 00:22:50;;;;;;;4.18;1.33;;;10.50;99.90;;;;;;5034941;28;20037;-63
2024/02/10 00:25:18;;;;;;;4.18;1.48;;;10.50;99.90;;;;;;5035241;28;20049;-64
2024/02/10 00:27:46;;;;;;;5.38;1.60;;;10.50;99.90;;;;;;5034834;28;20069;-63
2024/02/10 00:30:13;;;;;;;5.70;1.38;;;10.50;99.90;;;;;;5034836;28;20051;-63
2024/02/10 00:32:40;;;;;;;4.55;1.10;;;10.50;99.90;;;;;;5034698;28;20059;-63
2024/02/10 00:35:07;;;;;;;6.78;1.20;;;10.50;99.90;;;;;;5034613;28;20046;-64
2024/02/10 00:37:34;;;;;;;5.68;1.05;;;10.50;99.90;;;;;;5035191;28;20048;-64
2024/02/10 00:40:03;;;;;;;6.65;1.20;;;10.50;99.90;;;;;;5034524;28;20045;-64
2024/02/10 00:42:31;;;;;;;5.32;1.30;;;10.50;99.90;;;;;;5034681;28;20450;-64
2024/02/10 00:45:03;;;;;;;8.15;1.42;;;10.50;99.90;;;;;;5035032;28;20445;-64
2024/02/10 00:47:30;;;;;;;5.20;1.73;;;10.50;99.90;;;;;;5033113;28;20104;-64
2024/02/10 00:50:01;;;;;;;7.65;1.48;;;10.50;99.90;;;;;;5034438;28;20059;-64
2024/02/10 00:52:28;;;;;;;7.85;1.52;;;10.50;99.90;;;;;;5034571;28;20096;-64
2024/02/10 00:54:55;;;;;;;7.82;1.85;;;10.50;99.90;;;;;;5034435;28;20043;-64
2024/02/10 00:57:22;;;;;;;7.72;2.03;;;10.50;99.90;;;;;;5034512;28;20076;-64
2024/02/10 00:59:48;;;;;;;9.25;2.03;;;10.50;99.90;;;;;;5034654;28;20348;-64
2024/02/10 01:02:17;;;;;;;8.75;2.03;;;10.50;99.90;;;;;;5034614;28;20037;-64
2024/02/10 01:04:44;;;;;;;7.88;1.83;;;10.40;99.90;;;;;;5034458;28;20099;-65
2024/02/10 01:07:12;;;;;;;9.35;1.88;;;10.50;99.90;;;;;;5033944;28;20111;-64
2024/02/10 01:09:40;;;;;;;8.63;2.10;;;10.50;99.90;;;;;;5034473;28;20069;-64
2024/02/10 01:12:07;;;;;;;7.45;2.50;;;10.40;99.90;;;;;;5034188;28;20057;-65
2024/02/10 01:14:35;;;;;;;7.10;1.73;;;10.50;99.90;;;;;;5032722;28;20057;-66
2024/02/10 01:17:04;;;;;;;10.52;1.95;;;10.40;99.90;;;;;;5034234;28;20107;-65
2024/02/10 01:19:31;;;;;;;12.40;2.33;;;10.40;99.90;;;;;;5034084;28;20041;-65
2024/02/10 01:21:58;;;;;;;8.27;2.25;;;10.50;99.90;;;;;;5032745;28;20046;-64
2024/02/10 01:24:28;;;;;;;6.00;1.67;;;10.50;99.90;;;;;;5033680;28;20037;-62
2024/02/10 01:26:55;;;;;;;7.25;2.20;;;10.50;99.90;;;;;;5033716;28;20493;-62
2024/02/10 01:29:24;;;;;;;11.10;2.13;;;10.50;99.90;;;;;;5033775;28;20041;-63
2024/02/10 01:31:51;;;;;;;9.02;2.03;;;10.50;99.90;;;;;;5033592;28;20034;-63
2024/02/10 01:34:18;;;;;;;11.15;2.30;;;10.50;99.90;;;;;;5033517;28;20482;-63
2024/02/10 01:36:45;;;;;;;8.50;2.08;;;10.50;99.90;;;;;;5034104;28;20095;-63
2024/02/10 01:39:11;;;;;;;8.05;2.35;;;10.50;99.90;;;;;;5032298;28;20041;-63
2024/02/10 01:41:38;;;;;;;12.20;2.85;;;10.50;99.90;;;;;;5033442;28;20141;-63
2024/02/10 01:44:06;;;;;;;9.23;2.40;;;10.50;99.90;;;;;;5033458;28;20044;-63
2024/02/10 01:46:32;;;;;;;8.65;2.25;;;10.40;99.90;;;;;;5033465;28;20048;-62
2024/02/10 01:48:59;;;;;;;9.13;2.13;;;10.40;99.90;;;;;;5033576;28;20174;-63
2024/02/10 01:51:26;;;;;;;12.07;2.30;;;10.40;99.90;;;;;;5033419;28;20120;-62
2024/02/10 01:53:53;;;;;;;6.63;1.90;;;10.40;99.90;;;;;;5033333;28;20096;-63
2024/02/10 01:56:20;;;;;;;9.27;2.30;;;10.50;99.90;;;;;;5033295;28;20140;-63
2024/02/10 01:58:47;;;;;;;9.82;2.15;;;10.40;99.90;;;;;;5033829;28;20121;-62
2024/02/10 02:01:17;;;;;;;14.52;2.13;;;10.40;99.90;;;;;;5033487;28;20482;-63
2024/02/10 02:03:44;;;;;;;5.78;1.83;;;10.40;99.90;;;;;;5032143;28;20046;-63
2024/02/10 02:06:13;;;;;;;11.90;2.33;;;10.50;99.90;;;;;;5033006;28;20056;-62
2024/02/10 02:08:40;;;;;;;12.13;2.10;;;10.40;99.90;;;;;;5033543;28;20467;-61
2024/02/10 02:11:07;;;;;;;9.70;2.00;;;10.50;99.90;;;;;;5033406;28;20041;-61
2024/02/10 02:13:35;;;;;;;15.27;3.08;;;10.40;99.90;;;;;;5033229;28;20399;-61
2024/02/10 02:16:02;;;;;;;8.13;2.00;;;10.40;99.90;;;;;;5033225;28;20054;-61
2024/02/10 02:18:28;;;;;;;8.90;2.10;;;10.40;99.90;;;;;;5033710;28;20082;-61
2024/02/10 02:20:56;;;;;;;9.35;2.30;;;10.40;99.90;;;;;;5037060;28;20060;-61
2024/02/10 02:23:23;;;;;;;10.75;3.30;;;10.40;99.90;;;;;;5037391;28;20044;-61
2024/02/10 02:25:50;;;;;;;9.00;2.20;;;10.40;99.90;;;;;;5037262;28;20099;-61
2024/02/10 02:28:17;;;;;;;11.75;1.90;;;10.40;99.90;;;;;;5037083;28;20049;-63
2024/02/10 02:30:44;;;;;;;11.48;2.28;;;10.40;99.90;;;;;;5037390;28;20045;-64
2024/02/10 02:33:10;;;;;;;8.00;2.40;;;10.40;99.90;;;;;;5037477;28;20057;-65
2024/02/10 02:35:38;;;;;;;12.95;2.30;;;10.40;99.90;;;;;;5036802;28;20128;-64
2024/02/10 02:38:05;;;;;;;8.88;2.28;;;10.40;99.90;;;;;;5037090;28;20044;-64
2024/02/10 02:40:32;;;;;;;11.52;2.03;;;10.40;99.90;;;;;;5036806;28;20052;-64
2024/02/10 02:43:04;;;;;;;8.05;2.00;;;10.40;99.90;;;;;;5036980;28;20072;-64
2024/02/10 02:45:31;;;;;;;10.43;1.80;;;10.40;99.90;;;;;;5037158;28;20077;-63
2024/02/10 02:48:06;;;;;;;9.85;1.75;;;10.40;99.90;;;;;;5037209;28;20064;-64
2024/02/10 02:50:36;;;;;;;10.20;2.03;;;10.40;99.90;;;;;;5036722;28;20049;-64
2024/02/10 02:53:03;;;;;;;9.30;1.85;;;10.40;99.90;;;;;;5037092;28;20052;-64
2024/02/10 02:55:30;;;;;;;9.43;2.25;;;10.40;99.90;;;;;;5036513;28;20084;-64
2024/02/10 02:57:56;;;;;;;6.63;1.63;;;10.40;99.90;;;;;;5037259;28;20485;-63
2024/02/10 03:00:23;;;;;;;7.93;2.00;;;10.40;99.90;;;;;;5037139;28;20065;-65
2024/02/10 03:02:51;;;;;;;8.23;1.83;;;10.40;99.90;;;;;;5036561;28;20053;-65
2024/02/10 03:05:18;;;;;;;9.52;1.80;;;10.40;99.90;;;;;;5036518;28;20049;-65
2024/02/10 03:07:45;;;;;;;11.70;2.05;;;10.40;99.90;;;;;;5036659;28;20111;-64
2024/02/10 03:10:13;;;;;;;5.90;1.60;;;10.40;99.90;;;;;;5035772;28;20483;-65
2024/02/10 03:12:41;;;;;;;5.68;1.40;;;10.40;99.90;;;;;;5036490;28;20064;-65
2024/02/10 03:15:09;;;;;;;7.72;1.80;;;10.40;99.90;;;;;;5035997;28;20471;-64
2024/02/10 03:17:36;;;;;;;5.85;1.40;;;10.40;99.90;;;;;;5036083;28;20384;-65
2024/02/10 03:20:03;;;;;;;7.38;1.65;;;10.40;99.90;;;;;;5036346;28;20083;-64
2024/02/10 03:22:30;;;;;;;9.98;2.33;;;10.30;99.90;;;;;;5036132;28;20041;-64
2024/02/10 03:24:57;;;;;;;7.18;1.73;;;10.30;99.90;;;;;;5035938;28;20046;-64
2024/02/10 03:27:23;;;;;;;9.10;2.00;;;10.30;99.90;;;;;;5035966;28;20041;-64
2024/02/10 03:29:50;;;;;;;9.27;2.30;;;10.30;99.90;;;;;;5035919;28;20045;-65
2024/02/10 03:32:17;;;;;;;7.57;1.92;;;10.20;99.90;;;;;;5034328;28;20099;-64
2024/02/10 03:34:44;;;;;;;9.55;2.05;;;10.20;99.90;;;;;;5036016;28;20041;-64
2024/02/10 03:37:12;;;;;;;9.50;2.35;;;10.20;99.90;;;;;;5036500;28;20344;-64
2024/02/10 03:39:39;;;;;;;8.65;2.25;;;10.20;99.90;;;;;;5035815;28;20046;-64
2024/02/10 03:42:05;;;;;;;10.60;2.63;;;10.20;99.90;;;;;;5035565;28;20087;-64
2024/02/10 03:44:34;;;;;;;11.07;2.55;;;10.20;99.90;;;;;;5036017;28;20386;-65
2024/02/10 03:47:01;;;;;;;9.40;2.78;;;10.20;99.90;;;;;;5035833;28;20487;-64
2024/02/10 03:49:28;;;;;;;9.75;2.80;;;10.10;99.90;;;;;;5036136;28;20131;-64
2024/02/10 03:51:55;;;;;;;7.72;2.80;;;10.10;99.90;;;;;;5035440;28;20471;-64
2024/02/10 03:54:22;;;;;;;13.35;2.95;;;10.10;99.90;;;;;;5035221;28;20065;-64
2024/02/10 03:56:49;;;;;;;11.40;2.88;;;10.10;99.90;;;;;;5035260;28;20132;-64
2024/02/10 03:59:16;;;;;;;10.15;3.63;;;10.10;99.90;;;;;;5035775;28;20080;-64
2024/02/10 04:01:43;;;;;;;7.85;3.00;;;10.10;99.90;;;;;;5035214;28;20487;-64
2024/02/10 04:04:10;;;;;;;10.18;3.42;;;10.10;99.90;;;;;;5035432;28;20037;-64
2024/02/10 04:06:39;;;;;;;10.75;3.15;;;10.10;99.90;;;;;;5035367;28;20045;-64
2024/02/10 04:09:06;;;;;;;10.85;3.50;;;10.10;99.90;;;;;;5035625;28;20471;-64
2024/02/10 04:11:34;;;;;;;12.75;3.67;;;10.10;99.90;;;;;;5035109;28;20045;-64
2024/02/10 04:14:00;;;;;;;8.88;3.20;;;10.10;99.90;;;;;;5033509;28;20053;-62
2024/02/10 04:16:27;;;;;;;12.13;3.75;;;10.10;99.90;;;;;;5035237;28;20107;-63
2024/02/10 04:18:54;;;;;;;10.82;3.85;;;10.10;99.90;;;;;;5034085;28;20382;-63
2024/02/10 04:21:21;;;;;;;10.93;4.10;;;10.20;99.90;;;;;;5034891;28;20068;-63
2024/02/10 04:23:50;;;;;;;8.95;3.67;;;10.20;99.90;;;;;;5035350;28;20470;-63
2024/02/10 04:26:17;;;;;;;11.32;4.00;;;10.20;99.90;;;;;;5034964;28;20484;-64
2024/02/10 04:28:43;;;;;;;9.43;3.85;;;10.20;99.90;;;;;;5035052;28;20052;-64
2024/02/10 04:31:13;;;;;;;10.55;3.65;;;10.20;99.90;;;;;;5034895;28;20132;-64
2024/02/10 04:33:46;;;;;;;6.65;3.28;;;10.20;99.90;;;;;;5035091;28;20382;-64
2024/02/10 04:36:14;;;;;;;10.70;3.45;;;10.20;99.90;;;;;;5034575;28;20042;-63
2024/02/10 04:38:41;;;;;;;8.48;3.20;;;10.20;99.90;;;;;;5035035;28;20144;-64
2024/02/10 04:41:08;;;;;;;7.07;3.05;;;10.20;99.90;;;;;;5034768;28;20038;-65
2024/02/10 04:43:36;;;;;;;12.32;3.47;;;10.20;99.90;;;;;;5015830;28;20439;-64
2024/02/10 04:46:03;;;;;;;9.52;3.38;;;10.20;99.90;;;;;;5034550;28;20093;-63
2024/02/10 04:48:30;;;;;;;7.78;3.60;;;10.20;99.90;;;;;;5034453;28;20045;-64
2024/02/10 04:50:59;;;;;;;9.23;3.65;;;10.10;99.90;;;;;;5034219;28;20045;-63
2024/02/10 04:53:26;;;;;;;6.97;3.17;;;10.20;99.90;;;;;;5034621;28;20041;-63
2024/02/10 04:55:52;;;;;;;12.05;3.65;;;10.10;99.90;;;;;;5034356;28;20060;-64
2024/02/10 04:58:21;;;;;;;9.02;3.80;;;10.10;99.90;;;;;;5034429;28;20557;-64
2024/02/10 05:00:49;;;;;;;6.47;3.58;;;10.10;99.90;;;;;;5034345;28;20041;-64
2024/02/10 05:03:15;;;;;;;8.88;4.20;;;10.00;99.90;;;;;;5034289;28;20143;-63
2024/02/10 05:05:42;;;;;;;9.23;3.78;;;9.90;99.90;;;;;;5033873;28;20549;-64
2024/02/10 05:08:13;;;;;;;5.72;3.55;;;9.90;99.90;;;;;;5033949;28;20053;-63
2024/02/10 05:10:40;;;;;;;6.93;4.03;;;9.80;99.90;;;;;;5032764;28;20128;-63
2024/02/10 05:13:07;;;;;;;8.18;4.25;;;9.70;99.90;;;;;;5034320;28;20045;-64
2024/02/10 05:15:34;;;;;;;8.25;4.22;;;9.60;99.90;;;;;;5033853;28;20058;-64
2024/02/10 05:18:04;;;;;;;9.93;4.70;;;9.50;99.90;;;;;;5033978;28;20033;-64
2024/02/10 05:20:32;;;;;;;8.75;5.18;;;9.50;99.90;;;;;;5034106;28;20037;-65
2024/02/10 05:22:59;;;;;;;8.73;4.38;;;9.40;99.90;;;;;;5034066;28;20048;-64
2024/02/10 05:25:35;;;;;;;10.68;4.60;;;9.30;99.90;;;;;;5034020;28;20041;-64
2024/02/10 05:28:03;;;;;;;8.80;5.00;;;9.20;99.90;;;;;;5034328;28;20041;-64
2024/02/10 05:30:29;;;;;;;11.32;5.18;;;9.20;99.90;;;;;;5033524;28;20042;-64
2024/02/10 05:32:59;;;;;;;12.52;5.78;;;9.10;99.90;;;;;;5033560;28;20046;-62
2024/02/10 05:35:29;;;;;;;9.98;5.43;;;9.10;99.90;;;;;;5033818;28;20410;-60
2024/02/10 05:37:57;;;;;;;12.27;5.38;;;9.10;99.90;;;;;;5033816;28;20045;-60
2024/02/10 05:40:24;;;;;;;10.50;5.43;;;9.10;99.90;;;;;;5033776;28;20045;-60
2024/02/10 05:42:51;;;;;;;7.82;5.40;;;9.10;99.90;;;;;;5033964;28;20083;-63
2024/02/10 05:45:17;;;;;;;12.15;5.57;;;9.10;99.90;;;;;;5033947;28;20037;-62
2024/02/10 05:47:44;;;;;;;15.45;6.13;;;9.00;99.90;;;;;;5033344;28;20445;-63
2024/02/10 05:50:22;;;;;;;7.88;4.70;;;9.00;99.90;;;;;;5033584;28;20049;-63
2024/02/10 05:52:50;;;;;;;8.57;4.72;;;9.00;99.90;;;;;;5033730;28;20051;-63
2024/02/10 05:55:26;;;;;;;7.10;5.22;;;9.00;99.90;;;;;;5032897;28;20132;-63
2024/02/10 05:57:55;;;;;;;7.45;4.45;;;9.00;99.90;;;;;;5033215;28;20033;-63
2024/02/10 06:00:22;;;;;;;8.75;3.78;;;9.00;99.90;;;;;;5033401;28;20120;-63
2024/02/10 06:02:49;;;;;;;8.38;4.40;;;9.00;99.90;;;;;;5033180;28;20041;-64
2024/02/10 06:05:16;;;;;;;9.68;4.13;;;9.00;99.90;;;;;;5033132;28;20046;-65
2024/02/10 06:07:43;;;;;;;9.43;4.20;;;8.90;99.90;;;;;;5033599;28;20049;-64
2024/02/10 06:10:12;;;;;;;9.80;4.43;;;8.90;99.90;;;;;;5032521;28;20103;-65
2024/02/10 06:12:39;;;;;;;8.40;4.07;;;8.90;99.90;;;;;;5033310;28;20108;-65
2024/02/10 06:15:06;;;;;;;8.95;4.57;;;8.90;99.90;;;;;;5033068;28;20057;-64
2024/02/10 06:17:34;;;;;;;9.57;4.03;;;8.90;99.90;;;;;;5032980;28;20091;-65
2024/02/10 06:20:06;;;;;;;8.48;4.03;;;8.90;99.90;;;;;;5033492;28;20049;-66
2024/02/10 06:22:33;;;;;;;8.95;4.20;;;8.90;99.90;;;;;;5033582;28;20466;-64
2024/02/10 06:25:00;;;;;;;8.00;3.58;;;9.00;99.90;;;;;;5032838;28;20123;-64
2024/02/10 06:27:27;;;;;;;7.75;2.60;;;9.00;99.90;;;;;;5033150;28;20490;-64
2024/02/10 06:29:54;;;;;;;6.25;2.88;;;9.00;99.90;;;;;;5032877;28;20483;-63
2024/02/10 06:32:21;;;;;;;8.20;2.58;;;9.00;99.90;;;;;;5033224;28;20049;-63
2024/02/10 06:34:52;;;;;;;7.85;3.20;;;9.00;99.90;;;;;;5033448;28;20049;-63
2024/02/10 06:37:25;;;;;;;10.05;2.92;;;9.00;99.90;;;;;;5032940;28;20406;-63
2024/02/10 06:39:52;;;;;;;7.00;2.80;;;9.00;99.90;;;;;;5032365;28;20356;-64
2024/02/10 06:42:19;;;;;;;6.72;2.78;;;9.00;99.90;;;;;;5033020;28;20037;-63
2024/02/10 06:44:46;;;;;;;9.30;3.53;;;9.00;99.90;;;;;;5033062;28;20033;-64
2024/02/10 06:47:12;;;;;;;8.38;3.30;;;9.00;99.90;;;;;;5033264;28;20099;-63
2024/02/10 06:49:41;;;;;;;5.43;3.03;;;9.00;99.90;;;;;;5033470;28;20041;-63
2024/02/10 06:52:07;;;;;;;8.63;3.45;;;9.00;99.90;;;;;;5032771;28;20052;-63
2024/02/10 06:54:37;;;;;;;7.00;3.20;;;9.00;99.90;;;;;;5033065;28;20055;-63
2024/02/10 06:57:03;;;;;;;5.38;3.15;;;9.00;99.90;;;;;;5031948;28;20038;-63
2024/02/10 06:59:31;;;;;;;8.02;3.33;;;9.00;99.90;;;;;;5033168;28;20045;-63
2024/02/10 07:01:58;;;;;;;7.03;3.90;;;9.00;99.90;;;;;;5032580;28;20057;-62
2024/02/10 07:04:25;;;;;;;7.45;3.60;;;9.00;99.90;;;;;;5033156;28;20094;-63
2024/02/10 07:06:53;;;;;;;8.02;3.25;;;9.00;99.90;;;;;;5034976;28;20104;-63
2024/02/10 07:09:21;;;;;;;8.18;3.40;;;9.00;99.90;;;;;;5036958;28;20045;-63
2024/02/10 07:11:49;;;;;;;7.85;3.63;;;9.00;99.90;;;;;;5036560;28;20058;-63
2024/02/10 07:14:17;;;;;;;8.45;3.30;;;9.10;99.90;;;;;;5036095;28;20077;-63
2024/02/10 07:16:44;;;;;;;7.50;3.40;;;9.10;99.90;;;;;;5034811;28;20071;-64
2024/02/10 07:19:11;;;;;;;7.22;3.33;;;9.10;99.90;;;;;;5035146;28;20034;-64
2024/02/10 07:21:38;;;;;;;6.55;3.30;;;9.10;99.90;;;;;;5036113;28;20038;-64
2024/02/10 07:24:05;;;;;;;7.32;3.00;;;9.10;99.90;;;;;;5036227;28;20052;-64
2024/02/10 07:26:32;;;;;;;7.03;3.08;;;9.10;99.90;;;;;;5036321;28;20052;-63
2024/02/10 07:28:59;;;;;;;8.15;2.83;;;9.00;99.90;;;;;;5036168;28;20049;-64
2024/02/10 07:31:29;;;;;;;9.13;2.85;;;9.00;99.90;;;;;;5036007;28;20100;-64
2024/02/10 07:33:59;;;;;;;5.90;3.15;;;9.00;99.90;;;;;;5035927;28;20068;-60
2024/02/10 07:36:34;;;;;;;5.38;2.53;;;9.00;99.90;;;;;;5035582;28;20091;-60
2024/02/10 07:39:00;;;;;;;3.97;2.60;;;9.00;99.90;;;;;;5034414;28;20581;-62
2024/02/10 07:41:27;;;;;;;5.00;2.50;;;9.00;99.90;;;;;;5036324;28;20068;-61
2024/02/10 07:43:54;;;;;;;5.55;2.50;;;9.00;99.90;;;;;;5035752;28;20424;-61
2024/02/10 07:46:21;;;;;;;5.22;2.95;;;8.90;99.90;;;;;;5034596;28;20163;-63
2024/02/10 07:48:48;;;;;;;6.72;3.17;;;8.90;99.90;;;;;;5035629;28;20136;-64
2024/02/10 07:51:15;;;;;;;6.05;3.00;;;9.00;99.90;;;;;;5035641;28;20451;-64
2024/02/10 07:53:44;;;;;;;5.13;3.10;;;9.00;99.90;;;;;;5035635;28;20051;-64
2024/02/10 07:56:12;;;;;;;8.07;2.38;;;9.00;99.90;;;;;;5034634;28;20072;-65
2024/02/10 07:58:40;;;;;;;7.53;2.75;;;9.00;99.90;;;;;;5035564;28;20041;-64
2024/02/10 08:01:06;;;;;;;5.38;2.95;;;9.00;99.90;;;;;;5034458;28;20418;-64
2024/02/10 08:03:33;;;;;;;7.03;3.15;;;9.00;99.90;;;;;;5035557;28;20335;-64
2024/02/10 08:06:00;;;;;;;6.57;2.75;;;9.00;99.90;;;;;;5035409;28;20087;-65
2024/02/10 08:08:27;;;;;;;5.50;2.42;;;9.00;99.90;;;;;;5035593;28;20037;-64
2024/02/10 08:10:54;;;;;;;7.22;2.63;;;9.00;99.90;;;;;;5035560;28;20038;-65
2024/02/10 08:13:24;;;;;;;5.35;2.38;;;9.00;99.90;;;;;;5035660;28;20133;-65
2024/02/10 08:15:54;;;;;;;6.50;2.63;;;9.00;99.90;;;;;;5034993;28;20042;-64
2024/02/10 08:18:21;;;;;;;5.72;2.67;;;9.00;99.90;;;;;;5034935;28;20045;-65
2024/02/10 08:20:48;;;;;;;8.20;2.85;;;9.00;99.90;;;;;;5033766;28;20099;-65
2024/02/10 08:23:17;;;;;;;5.78;2.65;;;9.10;99.90;;;;;;5035076;28;20030;-65
2024/02/10 08:25:43;;;;;;;6.95;2.78;;;9.00;99.90;;;;;;5034161;28;20549;-65
2024/02/10 08:28:11;;;;;;;6.35;3.50;;;9.00;99.90;;;;;;5034876;28;20128;-65
2024/02/10 08:30:38;;;;;;;5.40;3.30;;;8.90;99.90;;;;;;5035287;28;20041;-65
2024/02/10 08:33:05;;;;;;;6.60;3.50;;;8.90;99.90;;;;;;5034781;28;20091;-66
2024/02/10 08:35:36;;;;;;;6.95;3.60;;;8.90;99.90;;;;;;5035129;28;20063;-65
2024/02/10 08:38:04;;;;;;;5.25;3.03;;;8.80;99.90;;;;;;5034685;28;20132;-61
2024/02/10 08:40:31;;;;;;;9.10;3.58;;;8.80;99.90;;;;;;5034709;28;20065;-61
2024/02/10 08:42:59;;;;;;;9.68;3.45;;;8.80;99.90;;;;;;5035000;28;20124;-61
2024/02/10 08:45:26;;;;;;;7.78;3.75;;;8.70;99.90;;;;;;5034508;28;20040;-61
2024/02/10 08:47:53;;;;;;;6.93;4.20;;;8.80;99.90;;;;;;5034953;28;20411;-61
2024/02/10 08:50:19;;;;;;;5.53;3.60;;;8.80;99.90;;;;;;5035298;28;20115;-63
2024/02/10 08:52:51;;;;;;;6.45;4.28;;;8.80;99.90;;;;;;5034184;28;20447;-63
2024/02/10 08:55:18;;;;;;;7.35;5.13;;;8.80;99.90;;;;;;5034889;28;20079;-63
2024/02/10 08:57:46;;;;;;;6.25;4.25;;;8.80;99.90;;;;;;5034415;28;20040;-63
2024/02/10 09:00:15;;;;;;;8.00;4.75;;;8.90;99.90;;;;;;5034692;28;20045;-61
2024/02/10 09:02:45;;;;;;;5.80;3.97;;;8.90;99.90;;;;;;5034621;28;20115;-61
2024/02/10 09:05:12;;;;;;;7.68;4.28;;;8.90;99.90;;;;;;5034318;28;20073;-61
2024/02/10 09:07:39;;;;;;;7.05;3.33;;;8.90;99.90;;;;;;5032969;28;20050;-61
2024/02/10 09:10:06;;;;;;;8.25;3.55;;;9.00;99.90;;;;;;5034609;28;20103;-65
2024/02/10 09:12:33;;;;;;;9.00;2.90;;;9.00;99.90;;;;;;5034322;28;20611;-62
2024/02/10 09:15:00;;;;;;;5.57;2.53;;;9.10;99.90;;;;;;5033878;28;20057;-62
2024/02/10 09:17:26;;;;;;;6.53;2.10;;;9.20;99.90;;;;;;5034375;28;20050;-61
2024/02/10 09:19:53;;;;;;;6.22;1.90;;;9.30;99.90;;;;;;5034120;28;20046;-61
2024/02/10 09:22:20;;;;;;;5.18;1.55;;;9.40;99.90;;;;;;5033829;28;20068;-60
2024/02/10 09:24:48;;;;;;;5.57;1.33;;;9.50;99.90;;;;;;5034108;28;20042;-60
2024/02/10 09:27:17;;;;;;;6.50;1.40;;;9.60;99.90;;;;;;5040414;28;20121;-61
2024/02/10 09:29:46;;;;;;;3.97;1.40;;;9.70;99.90;;;;;;5042991;28;20045;-61
2024/02/10 09:32:14;;;;;;;5.60;1.38;;;9.80;99.90;;;;;;5052439;28;20124;-61
2024/02/10 09:34:41;;;;;;;8.30;1.65;;;9.80;99.90;;;;;;5053741;28;20045;-62
2024/02/10 09:37:08;;;;;;;4.82;1.08;;;9.90;99.90;;;;;;5053632;28;20033;-61
2024/02/10 09:39:37;;;;;;;6.22;1.27;;;10.00;99.90;;;;;;5053909;28;20095;-61
2024/02/10 09:42:03;;;;;;;8.85;1.70;;;10.00;99.90;;;;;;5053775;28;20367;-61
2024/02/10 09:44:34;;;;;;;5.28;1.10;;;10.10;99.90;;;;;;5053597;28;20406;-60
2024/02/10 09:47:00;;;;;;;3.85;1.00;;;10.10;99.90;;;;;;5053544;28;20037;-60
2024/02/10 09:49:28;;;;;;;4.28;1.00;;;10.20;99.90;;;;;;5053388;28;20052;-61
2024/02/10 09:51:56;;;;;;;5.88;1.23;;;10.20;99.90;;;;;;5053489;28;20131;-61
2024/02/10 09:54:23;;;;;;;7.72;1.40;;;10.20;99.90;;;;;;5052336;28;20494;-61
2024/02/10 09:56:50;;;;;;;8.35;1.25;;;10.20;99.90;;;;;;5053962;28;20124;-61
2024/02/10 09:59:18;;;;;;;5.85;1.17;;;10.30;99.90;;;;;;5052689;28;20108;-60
2024/02/10 10:01:45;;;;;;;8.30;1.75;;;10.30;99.90;;;;;;5053632;28;20543;-64
2024/02/10 10:04:12;;;;;;;7.10;1.27;;;10.30;99.90;;;;;;5053275;28;20045;-65
2024/02/10 10:06:48;;;;;;;6.10;2.38;;;10.30;99.90;;;;;;5053625;28;20454;-65
2024/02/10 10:09:16;;;;;;;5.85;1.23;;;10.40;99.90;;;;;;5053645;28;20116;-64
2024/02/10 10:11:46;;;;;;;5.55;1.48;;;10.50;99.90;;;;;;5052971;28;20501;-64
2024/02/10 10:14:13;;;;;;;5.57;1.60;;;10.60;99.90;;;;;;5052839;28;20045;-66
2024/02/10 10:16:43;;;;;;;7.22;1.67;;;10.60;99.90;;;;;;5053201;28;20037;-65
2024/02/10 10:19:12;;;;;;;7.97;1.63;;;10.60;99.90;;;;;;5053090;28;20124;-64
2024/02/10 10:21:39;;;;;;;4.45;1.40;;;10.60;99.90;;;;;;5053580;28;20429;-64
2024/02/10 10:24:05;;;;;;;6.18;1.85;;;10.60;99.90;;;;;;5052788;28;20501;-65
2024/02/10 10:26:32;;;;;;;7.13;1.80;;;10.60;99.90;;;;;;5053405;28;20041;-65
2024/02/10 10:28:59;;;;;;;4.75;1.75;;;10.60;99.90;;;;;;5052933;28;20130;-64
2024/02/10 10:31:27;;;;;;;6.97;1.60;;;10.50;99.90;;;;;;5053280;28;20095;-65
2024/02/10 10:33:54;;;;;;;6.88;1.52;;;10.60;99.90;;;;;;5053073;28;20098;-64
2024/02/10 10:36:20;;;;;;;4.97;1.80;;;10.60;99.90;;;;;;5053185;28;20063;-64
2024/02/10 10:38:47;;;;;;;8.02;1.83;;;10.70;99.90;;;;;;5051666;28;20043;-65
2024/02/10 10:41:18;;;;;;;4.97;1.90;;;10.70;99.90;;;;;;5054302;28;20047;-64
2024/02/10 10:43:46;;;;;;;6.47;1.73;;;10.70;99.90;;;;;;5056824;28;20041;-65
2024/02/10 10:46:16;;;;;;;6.47;2.00;;;10.80;99.90;;;;;;5056758;28;20393;-64
2024/02/10 10:48:44;;;;;;;7.13;1.83;;;10.80;99.90;;;;;;5055590;28;20045;-65
2024/02/10 10:51:11;;;;;;;4.20;1.33;;;10.80;99.90;;;;;;5056990;28;20048;-64
2024/02/10 10:53:38;;;;;;;8.00;1.75;;;10.90;99.90;;;;;;5054869;28;20048;-61
2024/02/10 10:56:05;;;;;;;5.75;1.63;;;10.90;99.90;;;;;;5036629;28;20463;-60
2024/02/10 10:58:35;;;;;;;5.53;1.30;;;10.90;99.90;;;;;;5036639;28;20037;-60
2024/02/10 11:01:03;;;;;;;4.40;1.40;;;11.00;99.90;;;;;;5036656;28;20037;-60
2024/02/10 11:03:30;;;;;;;4.28;1.20;;;10.90;99.90;;;;;;5036695;28;20042;-61
2024/02/10 11:05:57;;;;;;;4.80;1.80;;;11.00;99.90;;;;;;5036483;28;20045;-60
2024/02/10 11:08:25;;;;;;;5.22;1.58;;;11.00;99.90;;;;;;5036808;28;20052;-64
2024/02/10 11:10:52;;;;;;;5.63;1.60;;;11.10;99.90;;;;;;5036226;28;20046;-65
2024/02/10 11:13:21;;;;;;;4.60;1.20;;;11.10;99.90;;;;;;5036481;28;20051;-65
2024/02/10 11:15:47;;;;;;;6.97;1.38;;;11.20;99.90;;;;;;5035145;28;20050;-64
2024/02/10 11:18:17;;;;;;;3.95;1.30;;;11.20;99.90;;;;;;5035161;28;20368;-64
2024/02/10 11:20:44;;;;;;;3.78;1.08;;;11.30;99.90;;;;;;5036047;28;20050;-64
2024/02/10 11:23:14;;;;;;;2.83;1.33;;;11.40;99.90;;;;;;5036815;28;20038;-61
2024/02/10 11:25:41;;;;;;;5.72;1.13;;;11.40;99.90;;;;;;5034959;28;20050;-61
2024/02/10 11:28:08;;;;;;;2.92;1.10;;;11.40;99.90;;;;;;5035072;28;20136;-61
2024/02/10 11:30:35;;;;;;;4.60;0.98;;;11.50;99.90;;;;;;5034865;28;20041;-61
2024/02/10 11:33:03;;;;;;;3.90;1.00;;;11.50;99.90;;;;;;5035834;28;20091;-61
2024/02/10 11:35:32;;;;;;;2.40;0.98;;;11.50;99.90;;;;;;5035885;28;20138;-61
2024/02/10 11:38:05;;;;;;;3.45;1.00;;;11.50;99.90;;;;;;5035758;28;20044;-61
2024/02/10 11:40:32;;;;;;;3.28;0.90;;;11.60;99.90;;;;;;5035178;28;20254;-61
2024/02/10 11:42:59;;;;;;;4.60;1.00;;;11.70;99.90;;;;;;5035009;28;20034;-61
2024/02/10 11:45:26;;;;;;;2.83;0.90;;;11.70;99.90;;;;;;5035430;28;20120;-62
2024/02/10 11:47:54;;;;;;;2.15;0.85;;;11.80;99.90;;;;;;5035568;28;20045;-62
2024/02/10 11:50:21;;;;;;;1.83;0.80;;;11.90;99.90;;;;;;5034442;28;20056;-61
2024/02/10 11:52:48;;;;;;;3.28;0.73;;;11.90;99.90;;;;;;5035082;28;20037;-62
2024/02/10 11:55:15;;;;;;;2.60;0.80;;;12.00;99.90;;;;;;5034492;28;20037;-62
2024/02/10 11:57:42;;;;;;;3.90;1.08;;;12.00;99.90;;;;;;5033750;28;20046;-61
2024/02/10 12:00:12;;;;;;;3.25;0.95;;;12.10;99.90;;;;;;5034729;28;20061;-62
2024/02/10 12:02:39;;;;;;;2.13;0.70;;;12.20;99.90;;;;;;5034154;28;20049;-61
2024/02/10 12:05:06;;;;;;;3.45;1.08;;;12.20;99.90;;;;;;5038517;28;20112;-61
2024/02/10 12:07:33;;;;;;;4.65;0.90;;;12.30;99.90;;;;;;5035493;28;20060;-61
2024/02/10 12:10:00;;;;;;;3.50;0.90;;;12.30;99.90;;;;;;5034458;28;20132;-61
2024/02/10 12:12:27;;;;;;;2.53;1.08;;;12.30;99.90;;;;;;5033764;28;20131;-61
2024/02/10 12:14:54;;;;;;;3.83;0.80;;;12.30;99.90;;;;;;5034088;28;20045;-61
2024/02/10 12:17:21;;;;;;;6.30;1.23;;;12.40;99.90;;;;;;5035038;28;20041;-61
2024/02/10 12:19:49;;;;;;;4.10;0.88;;;12.50;99.90;;;;;;5035191;28;20045;-61
2024/02/10 12:22:16;;;;;;;4.60;0.90;;;12.50;99.90;;;;;;5033565;28;20045;-61
2024/02/10 12:24:44;;;;;;;3.33;0.88;;;12.50;99.90;;;;;;5034876;28;20047;-61
2024/02/10 12:27:11;;;;;;;3.60;1.08;;;12.50;99.90;;;;;;5035437;28;20065;-61
2024/02/10 12:29:38;;;;;;;2.63;0.80;;;12.50;99.90;;;;;;5035387;28;20038;-61
2024/02/10 12:32:05;;;;;;;3.67;1.00;;;12.50;99.90;;;;;;5034606;28;20037;-62
2024/02/10 12:34:33;;;;;;;4.28;1.10;;;12.50;99.90;;;;;;5033725;28;20632;-62
2024/02/10 12:37:00;;;;;;;3.42;0.98;;;12.60;99.90;;;;;;5033567;28;20044;-60
2024/02/10 12:39:26;;;;;;;5.35;1.10;;;12.70;99.90;;;;;;5033556;28;20045;-60
2024/02/10 12:41:54;;;;;;;2.13;0.75;;;12.60;99.90;;;;;;5033554;28;20128;-60
2024/02/10 12:44:21;;;;;;;5.22;1.15;;;12.60;99.90;;;;;;5032093;28;20099;-60
2024/02/10 12:46:48;;;;;;;2.50;0.90;;;12.60;99.90;;;;;;5033426;28;20095;-66
2024/02/10 12:49:15;;;;;;;4.68;1.20;;;12.60;99.90;;;;;;5034986;28;20136;-65